createdAt,value
2023-03-06T00:00:50.808Z,93580.25
2023-03-06T00:03:17.590Z,93582.38
2023-03-06T00:05:44.336Z,93570.19
2023-03-06T00:08:16.634Z,93574.91
2023-03-06T00:10:43.762Z,93565.63
2023-03-06T00:13:12.896Z,93561.78
2023-03-06T00:15:39.652Z,93561.59
2023-03-06T00:18:06.852Z,93556.59
2023-03-06T00:20:33.917Z,93564.19
2023-03-06T00:23:00.974Z,93558.66
2023-03-06T00:25:28.770Z,93557.13
2023-03-06T00:27:58.240Z,93554.41
2023-03-06T00:30:25.487Z,93552.28
2023-03-06T00:32:52.598Z,93554.38
2023-03-06T00:35:20.592Z,93557.31
2023-03-06T00:37:48.048Z,93542.22
2023-03-06T00:40:16.719Z,93546.59
2023-03-06T00:42:46.883Z,93556.41
2023-03-06T00:45:13.776Z,93552.97
2023-03-06T00:47:40.838Z,93553.94
2023-03-06T00:50:10.688Z,93555.97
2023-03-06T00:52:37.504Z,93556.63
2023-03-06T00:55:06.541Z,93551.38
2023-03-06T00:57:33.288Z,93552.00
2023-03-06T01:00:00.524Z,93551.47
2023-03-06T01:02:27.343Z,93540.97
2023-03-06T01:04:54.139Z,93539.88
2023-03-06T01:07:23.618Z,93548.91
2023-03-06T01:09:50.642Z,93537.59
2023-03-06T01:12:19.287Z,93541.47
2023-03-06T01:14:48.678Z,93532.75
2023-03-06T01:17:16.214Z,93530.66
2023-03-06T01:19:45.785Z,93528.44
2023-03-06T01:22:12.723Z,93525.66
2023-03-06T01:24:42.565Z,93520.47
2023-03-06T01:27:09.825Z,93521.34
2023-03-06T01:29:39.034Z,93518.25
2023-03-06T01:32:07.562Z,93515.59
2023-03-06T01:34:34.509Z,93516.25
2023-03-06T01:37:01.771Z,93511.66
2023-03-06T01:39:28.517Z,93509.25
2023-03-06T01:41:55.217Z,93507.72
2023-03-06T01:44:22.239Z,93496.50
2023-03-06T01:46:50.473Z,93495.97
2023-03-06T01:49:41.348Z,93491.38
2023-03-06T01:52:13.226Z,93488.81
2023-03-06T01:54:54.583Z,93485.59
2023-03-06T01:57:26.598Z,93480.56
2023-03-06T01:59:56.458Z,93483.94
2023-03-06T02:02:23.657Z,93483.84
2023-03-06T02:04:52.242Z,93478.91
2023-03-06T02:07:20.322Z,93480.44
2023-03-06T02:09:47.070Z,93492.78
2023-03-06T02:12:16.654Z,93482.56
2023-03-06T02:14:43.677Z,93479.97
2023-03-06T02:17:11.191Z,93474.13
2023-03-06T02:20:11.836Z,93478.56
2023-03-06T02:22:54.661Z,93474.94
2023-03-06T02:25:34.564Z,93473.41
2023-03-06T02:28:01.542Z,93472.28
2023-03-06T02:30:29.092Z,93469.19
2023-03-06T02:32:56.189Z,93476.56
2023-03-06T02:35:25.579Z,93466.25
2023-03-06T02:37:53.091Z,93467.28
2023-03-06T02:40:21.335Z,93460.13
2023-03-06T02:42:50.177Z,93459.47
2023-03-06T02:45:44.423Z,93464.44
2023-03-06T02:48:12.377Z,93448.19
2023-03-06T02:50:40.177Z,93450.50
2023-03-06T02:53:07.369Z,93446.63
2023-03-06T02:55:34.490Z,93448.94
2023-03-06T02:58:01.707Z,93436.94
2023-03-06T03:00:34.611Z,93446.72
2023-03-06T03:03:01.544Z,93432.81
2023-03-06T03:05:28.290Z,93437.59
2023-03-06T03:07:55.024Z,93432.84
2023-03-06T03:10:22.130Z,93432.50
2023-03-06T03:12:50.769Z,93431.66
2023-03-06T03:15:23.846Z,93439.06
2023-03-06T03:17:50.581Z,93434.44
2023-03-06T03:20:18.951Z,93438.06
2023-03-06T03:22:53.346Z,93439.41
2023-03-06T03:25:22.611Z,93437.34
2023-03-06T03:27:54.257Z,93443.72
2023-03-06T03:30:24.035Z,93448.19
2023-03-06T03:32:53.558Z,93447.78
2023-03-06T03:35:20.372Z,93440.63
2023-03-06T03:37:47.165Z,93447.09
2023-03-06T03:40:14.388Z,93444.44
2023-03-06T03:42:41.098Z,93435.22
2023-03-06T03:45:08.182Z,93435.44
2023-03-06T03:47:36.862Z,93438.38
2023-03-06T03:50:04.622Z,93427.78
2023-03-06T03:52:31.394Z,93425.66
2023-03-06T03:54:59.152Z,93432.03
2023-03-06T03:57:25.925Z,93429.09
2023-03-06T03:59:53.542Z,93428.66
2023-03-06T04:02:21.021Z,93429.00
2023-03-06T04:04:49.300Z,93426.69
2023-03-06T04:07:18.840Z,93425.47
2023-03-06T04:09:46.340Z,93418.00
2023-03-06T04:12:13.467Z,93417.66
2023-03-06T04:14:40.208Z,93414.66
2023-03-06T04:17:06.909Z,93422.66
2023-03-06T04:19:34.966Z,93416.19
2023-03-06T04:22:02.589Z,93419.97
2023-03-06T04:24:33.104Z,93414.53
2023-03-06T04:26:59.823Z,93422.56
2023-03-06T04:29:27.878Z,93418.56
2023-03-06T04:31:55.169Z,93419.44
2023-03-06T04:34:27.349Z,93417.38
2023-03-06T04:36:54.566Z,93410.69
2023-03-06T04:39:21.675Z,93410.47
2023-03-06T04:41:48.423Z,93410.47
2023-03-06T04:44:16.313Z,93413.56
2023-03-06T04:46:45.874Z,93412.22
2023-03-06T04:49:17.821Z,93405.94
2023-03-06T04:51:44.847Z,93408.56
2023-03-06T04:54:11.575Z,93413.31
2023-03-06T04:56:40.020Z,93411.44
2023-03-06T04:59:07.586Z,93404.97
2023-03-06T05:01:34.361Z,93406.44
2023-03-06T05:04:01.145Z,93411.88
2023-03-06T05:06:28.221Z,93410.22
2023-03-06T05:08:54.941Z,93406.53
2023-03-06T05:11:23.612Z,93404.53
2023-03-06T05:13:50.497Z,93408.63
2023-03-06T05:16:20.110Z,93405.41
2023-03-06T05:18:50.201Z,93407.75
2023-03-06T05:21:17.472Z,93408.38
2023-03-06T05:23:44.570Z,93406.03
2023-03-06T05:26:12.867Z,93408.97
2023-03-06T05:28:40.009Z,93414.47
2023-03-06T05:31:08.794Z,93414.66
2023-03-06T05:33:36.003Z,93414.47
2023-03-06T05:36:02.757Z,93422.88
2023-03-06T05:38:29.829Z,93414.19
2023-03-06T05:40:56.606Z,93413.84
2023-03-06T05:43:26.323Z,93418.22
2023-03-06T05:46:00.657Z,93421.06
2023-03-06T05:48:27.773Z,93416.69
2023-03-06T05:50:58.292Z,93414.28
2023-03-06T05:53:25.034Z,93421.41
2023-03-06T05:55:59.034Z,93413.84
2023-03-06T05:58:26.429Z,93412.72
2023-03-06T06:00:53.183Z,93409.00
2023-03-06T06:03:21.245Z,93403.88
2023-03-06T06:05:49.463Z,93415.97
2023-03-06T06:08:20.017Z,93419.63
2023-03-06T06:10:47.384Z,93416.88
2023-03-06T06:13:14.842Z,93417.22
2023-03-06T06:15:41.977Z,93424.66
2023-03-06T06:18:11.517Z,93416.44
2023-03-06T06:20:38.417Z,93414.16
2023-03-06T06:23:06.460Z,93415.84
2023-03-06T06:25:33.933Z,93423.22
2023-03-06T06:28:01.053Z,93411.25
2023-03-06T06:30:27.771Z,93418.00
2023-03-06T06:32:54.478Z,93415.59
2023-03-06T06:35:21.194Z,93422.31
2023-03-06T06:37:48.294Z,93423.97
2023-03-06T06:40:16.452Z,93417.81
2023-03-06T06:42:44.320Z,93430.34
2023-03-06T06:45:11.377Z,93426.28
2023-03-06T06:47:39.798Z,93423.31
2023-03-06T06:50:07.794Z,93439.16
2023-03-06T06:52:34.476Z,93434.59
2023-03-06T06:55:01.248Z,93438.38
2023-03-06T06:57:28.562Z,93436.94
2023-03-06T06:59:55.289Z,93439.78
2023-03-06T07:02:22.065Z,93432.09
2023-03-06T07:05:02.924Z,93438.88
2023-03-06T07:07:33.045Z,93442.84
2023-03-06T07:10:08.733Z,93440.28
2023-03-06T07:12:38.412Z,93435.63
2023-03-06T07:15:06.212Z,93430.16
2023-03-06T07:17:32.994Z,93429.25
2023-03-06T07:19:59.798Z,93433.66
2023-03-06T07:22:26.873Z,93427.38
2023-03-06T07:24:53.586Z,93425.97
2023-03-06T07:27:22.220Z,93421.44
2023-03-06T07:29:48.992Z,93418.34
2023-03-06T07:32:17.262Z,93418.84
2023-03-06T07:34:44.285Z,93419.50
2023-03-06T07:37:12.012Z,93429.38
2023-03-06T07:39:39.091Z,93423.91
2023-03-06T07:42:06.800Z,93434.63
2023-03-06T07:44:40.050Z,93437.38
2023-03-06T07:47:07.004Z,93428.75
2023-03-06T07:49:34.661Z,93445.22
2023-03-06T07:52:01.471Z,93440.03
2023-03-06T07:54:31.473Z,93429.69
2023-03-06T07:57:02.869Z,93425.56
2023-03-06T07:59:29.584Z,93426.50
2023-03-06T08:01:56.330Z,93436.38
2023-03-06T08:04:27.439Z,93448.72
2023-03-06T08:06:55.656Z,93443.88
2023-03-06T08:09:22.919Z,93440.94
2023-03-06T08:11:50.993Z,93448.47
2023-03-06T08:14:18.348Z,93444.03
2023-03-06T08:16:45.457Z,93438.31
2023-03-06T08:19:12.188Z,93434.38
2023-03-06T08:21:39.298Z,93447.16
2023-03-06T08:24:07.490Z,93444.84
2023-03-06T08:26:34.421Z,93443.88
2023-03-06T08:29:01.777Z,93440.84
2023-03-06T08:31:48.557Z,93441.94
2023-03-06T08:34:17.135Z,93443.84
2023-03-06T08:36:43.926Z,93446.03
2023-03-06T08:39:13.964Z,93450.09
2023-03-06T08:41:40.847Z,93450.75
2023-03-06T08:44:07.687Z,93450.56
2023-03-06T08:46:34.386Z,93449.06
2023-03-06T08:49:01.750Z,93456.56
2023-03-06T08:51:29.758Z,93449.97
2023-03-06T08:53:58.681Z,93454.66
2023-03-06T08:56:49.256Z,93452.34
2023-03-06T08:59:17.001Z,93460.31
2023-03-06T09:01:43.981Z,93453.59
2023-03-06T09:04:11.787Z,93448.63
2023-03-06T09:06:42.473Z,93451.63
2023-03-06T09:09:12.123Z,93459.16
2023-03-06T09:11:40.269Z,93453.31
2023-03-06T09:14:07.145Z,93450.50
2023-03-06T09:16:34.228Z,93455.59
2023-03-06T09:19:00.986Z,93449.31
2023-03-06T09:21:29.010Z,93455.00
2023-03-06T09:23:55.869Z,93451.03
2023-03-06T09:26:39.500Z,93454.16
2023-03-06T09:29:10.447Z,93458.19
2023-03-06T09:31:37.188Z,93454.44
2023-03-06T09:34:04.138Z,93457.47
2023-03-06T09:36:45.643Z,93456.03
2023-03-06T09:39:23.309Z,93454.59
2023-03-06T09:41:53.813Z,93455.03
2023-03-06T09:44:27.810Z,93450.75
2023-03-06T09:47:49.669Z,93451.25
2023-03-06T09:50:46.209Z,93450.56
2023-03-06T09:53:30.653Z,93455.41
2023-03-06T09:56:01.166Z,93450.06
2023-03-06T09:58:29.270Z,93454.81
2023-03-06T10:01:21.852Z,93450.94
2023-03-06T10:03:59.780Z,93445.47
2023-03-06T10:06:37.173Z,93452.09
2023-03-06T10:09:23.206Z,93446.66
2023-03-06T10:11:57.120Z,93442.63
2023-03-06T10:14:35.107Z,93439.31
2023-03-06T10:17:02.043Z,93441.94
2023-03-06T10:19:36.776Z,93435.97
2023-03-06T10:22:26.050Z,93435.50
2023-03-06T10:25:01.919Z,93440.63
2023-03-06T10:27:46.284Z,93436.66
2023-03-06T10:30:34.881Z,93432.34
2023-03-06T10:33:13.247Z,93427.13
2023-03-06T10:35:49.379Z,93433.56
2023-03-06T10:38:26.825Z,93428.34
2023-03-06T10:41:31.470Z,93430.03
2023-03-06T10:44:01.666Z,93437.50
2023-03-06T10:46:50.185Z,93421.88
2023-03-06T10:49:31.370Z,93429.19
2023-03-06T10:52:09.998Z,93420.94
2023-03-06T10:54:37.991Z,93416.72
2023-03-06T10:57:24.804Z,93422.34
2023-03-06T10:59:56.827Z,93419.41
2023-03-06T11:02:33.493Z,93420.41
2023-03-06T11:05:00.795Z,93416.50
2023-03-06T11:07:29.115Z,93418.03
2023-03-06T11:10:02.609Z,93411.06
2023-03-06T11:12:38.938Z,93413.66
2023-03-06T11:15:15.132Z,93409.53
2023-03-06T11:18:11.331Z,93410.84
2023-03-06T11:20:51.943Z,93396.59
2023-03-06T11:23:24.914Z,93414.19
2023-03-06T11:25:57.587Z,93407.44
2023-03-06T11:28:28.556Z,93405.09
2023-03-06T11:31:22.599Z,93398.66
2023-03-06T11:34:06.071Z,93401.97
2023-03-06T11:36:43.207Z,93398.13
2023-03-06T11:40:03.729Z,93388.94
2023-03-06T11:42:34.146Z,93389.63
2023-03-06T11:45:19.087Z,93384.16
2023-03-06T11:47:49.218Z,93380.94
2023-03-06T11:50:36.715Z,93376.22
2023-03-06T11:53:07.024Z,93372.38
2023-03-06T11:55:36.639Z,93366.56
2023-03-06T11:58:22.902Z,93368.72
2023-03-06T12:01:06.572Z,93366.56
2023-03-06T12:03:39.577Z,93362.69
2023-03-06T12:06:24.321Z,93365.03
2023-03-06T12:09:14.420Z,93351.84
2023-03-06T12:12:28.888Z,93342.81
2023-03-06T12:15:12.938Z,93348.50
2023-03-06T12:18:05.233Z,93339.94
2023-03-06T12:20:37.815Z,93340.72
2023-03-06T12:23:15.357Z,93329.63
2023-03-06T12:25:56.566Z,93332.13
2023-03-06T12:28:35.129Z,93327.31
2023-03-06T12:31:36.064Z,93315.88
2023-03-06T12:34:31.822Z,93317.66
2023-03-06T12:37:47.157Z,93315.25
2023-03-06T12:40:32.268Z,93310.94
2023-03-06T12:43:20.297Z,93313.22
2023-03-06T12:45:47.119Z,93304.22
2023-03-06T12:48:21.280Z,93304.84
2023-03-06T12:50:49.569Z,93301.78
2023-03-06T12:53:26.921Z,93294.59
2023-03-06T12:55:58.135Z,93296.88
2023-03-06T12:58:30.704Z,93294.34
2023-03-06T13:01:29.438Z,93289.13
2023-03-06T13:04:24.374Z,93285.34
2023-03-06T13:07:17.505Z,93281.38
2023-03-06T13:10:18.500Z,93282.81
2023-03-06T13:13:00.641Z,93279.59
2023-03-06T13:15:45.957Z,93274.81
2023-03-06T13:18:42.920Z,93277.56
2023-03-06T13:21:51.134Z,93271.34
2023-03-06T13:24:24.301Z,93274.97
2023-03-06T13:27:10.564Z,93276.09
2023-03-06T13:29:42.537Z,93264.38
2023-03-06T13:32:16.396Z,93272.63
2023-03-06T13:34:44.372Z,93272.63
2023-03-06T13:37:16.902Z,93273.91
2023-03-06T13:39:58.619Z,93276.38
2023-03-06T13:42:32.222Z,93281.25
2023-03-06T13:45:27.798Z,93265.25
2023-03-06T13:50:47.997Z,93273.66
2023-03-06T13:53:50.093Z,93272.94
2023-03-06T13:56:34.848Z,93268.41
2023-03-06T13:59:26.391Z,93265.75
2023-03-06T14:02:44.857Z,93267.03
2023-03-06T14:05:13.549Z,93259.38
2023-03-06T14:08:02.692Z,93268.09
2023-03-06T14:10:29.403Z,93253.03
2023-03-06T14:13:30.031Z,93254.81
2023-03-06T14:15:59.390Z,93256.34
2023-03-06T14:18:42.614Z,93255.31
2023-03-06T14:21:16.128Z,93263.44
2023-03-06T14:23:43.452Z,93256.84
2023-03-06T14:26:23.355Z,93255.59
2023-03-06T14:28:53.510Z,93254.31
2023-03-06T14:31:32.199Z,93245.38
2023-03-06T14:34:00.673Z,93250.00
2023-03-06T14:36:52.830Z,93251.50
2023-03-06T14:39:38.605Z,93246.13
2023-03-06T14:42:19.015Z,93244.00
2023-03-06T14:44:48.947Z,93234.69
2023-03-06T14:47:49.599Z,93225.81
2023-03-06T14:50:28.126Z,93234.75
2023-03-06T14:53:14.865Z,93236.38
2023-03-06T14:55:52.493Z,93234.91
2023-03-06T14:58:21.564Z,93233.31
2023-03-06T15:00:50.199Z,93233.41
2023-03-06T15:03:25.494Z,93227.19
2023-03-06T15:05:52.286Z,93229.47
2023-03-06T15:08:22.516Z,93228.38
2023-03-06T15:11:00.764Z,93221.75
2023-03-06T15:13:28.875Z,93233.31
2023-03-06T15:16:00.960Z,93221.69
2023-03-06T15:18:37.056Z,93226.97
2023-03-06T15:21:25.850Z,93225.81
2023-03-06T15:23:53.988Z,93224.28
2023-03-06T15:26:31.677Z,93223.22
2023-03-06T15:29:10.892Z,93218.56
2023-03-06T15:31:39.592Z,93219.91
2023-03-06T15:34:06.582Z,93231.84
2023-03-06T15:36:53.042Z,93230.63
2023-03-06T15:39:33.612Z,93241.75
2023-03-06T15:42:20.360Z,93236.13
2023-03-06T15:44:59.850Z,93223.91
2023-03-06T15:47:26.587Z,93228.56
2023-03-06T15:49:53.374Z,93235.69
2023-03-06T15:52:23.332Z,93225.50
2023-03-06T15:54:50.084Z,93224.22
2023-03-06T15:57:27.291Z,93232.88
2023-03-06T15:59:55.996Z,93234.44
2023-03-06T16:02:23.900Z,93232.63
2023-03-06T16:04:51.139Z,93236.47
2023-03-06T16:07:19.430Z,93235.59
2023-03-06T16:09:46.335Z,93233.41
2023-03-06T16:12:24.176Z,93239.78
2023-03-06T16:14:52.447Z,93240.50
2023-03-06T16:17:24.024Z,93240.81
2023-03-06T16:19:50.715Z,93242.84
2023-03-06T16:22:17.410Z,93237.16
2023-03-06T16:24:44.668Z,93240.28
2023-03-06T16:27:16.571Z,93247.09
2023-03-06T16:29:43.269Z,93245.81
2023-03-06T16:32:10.629Z,93244.63
2023-03-06T16:34:37.413Z,93249.47
2023-03-06T16:37:04.266Z,93251.47
2023-03-06T16:39:30.962Z,93255.69
2023-03-06T16:41:57.672Z,93257.22
2023-03-06T16:44:24.748Z,93246.94
2023-03-06T16:46:51.475Z,93256.69
2023-03-06T16:49:19.938Z,93258.72
2023-03-06T16:51:48.819Z,93257.78
2023-03-06T16:54:15.546Z,93256.81
2023-03-06T16:56:42.387Z,93260.75
2023-03-06T16:59:09.145Z,93271.66
2023-03-06T17:01:37.092Z,93271.03
2023-03-06T17:04:04.073Z,93274.09
2023-03-06T17:06:34.076Z,93261.94
2023-03-06T17:09:02.746Z,93271.47
2023-03-06T17:11:32.596Z,93282.84
2023-03-06T17:13:59.668Z,93290.19
2023-03-06T17:16:28.960Z,93284.72
2023-03-06T17:18:58.194Z,93299.22
2023-03-06T17:21:25.294Z,93289.81
2023-03-06T17:23:52.254Z,93298.47
2023-03-06T17:26:19.241Z,93305.94
2023-03-06T17:28:46.529Z,93314.00
2023-03-06T17:31:20.898Z,93311.91
2023-03-06T17:33:47.773Z,93307.09
2023-03-06T17:36:14.893Z,93324.38
2023-03-06T17:38:42.757Z,93320.91
2023-03-06T17:41:09.888Z,93305.94
2023-03-06T17:43:37.414Z,93314.59
2023-03-06T17:46:05.513Z,93330.06
2023-03-06T17:48:32.809Z,93328.91
2023-03-06T17:50:59.939Z,93343.88
2023-03-06T17:53:27.178Z,93342.31
2023-03-06T17:55:54.780Z,93344.09
2023-03-06T17:58:22.804Z,93353.47
2023-03-06T18:00:49.549Z,93353.31
2023-03-06T18:03:17.620Z,93349.19
2023-03-06T18:05:45.983Z,93357.34
2023-03-06T18:08:12.866Z,93352.59
2023-03-06T18:10:43.398Z,93352.19
2023-03-06T18:13:10.693Z,93360.94
2023-03-06T18:15:41.326Z,93358.63
2023-03-06T18:18:08.326Z,93363.75
2023-03-06T18:20:47.131Z,93365.75
2023-03-06T18:23:14.133Z,93368.34
2023-03-06T18:25:40.839Z,93369.47
2023-03-06T18:28:10.355Z,93372.81
2023-03-06T18:30:38.339Z,93378.06
2023-03-06T18:33:08.039Z,93378.03
2023-03-06T18:35:36.833Z,93376.84
2023-03-06T18:38:05.403Z,93383.84
2023-03-06T18:40:32.089Z,93392.53
2023-03-06T18:42:58.911Z,93387.66
2023-03-06T18:45:25.926Z,93393.47
2023-03-06T18:47:54.800Z,93404.53
2023-03-06T18:50:21.619Z,93394.38
2023-03-06T18:52:49.685Z,93400.22
2023-03-06T18:55:17.010Z,93409.75
2023-03-06T18:57:44.275Z,93417.72
2023-03-06T19:00:11.454Z,93421.72
2023-03-06T19:02:38.173Z,93418.66
2023-03-06T19:05:06.098Z,93424.50
2023-03-06T19:07:32.869Z,93420.22
2023-03-06T19:10:02.392Z,93417.03
2023-03-06T19:12:29.258Z,93408.44
2023-03-06T19:14:56.026Z,93411.94
2023-03-06T19:17:25.586Z,93410.44
2023-03-06T19:19:59.420Z,93415.91
2023-03-06T19:22:26.729Z,93414.31
2023-03-06T19:24:59.346Z,93416.84
2023-03-06T19:27:36.133Z,93426.69
2023-03-06T19:30:03.099Z,93434.38
2023-03-06T19:32:29.845Z,93432.25
2023-03-06T19:34:56.983Z,93432.50
2023-03-06T19:37:24.574Z,93448.88
2023-03-06T19:39:51.324Z,93445.66
2023-03-06T19:42:18.393Z,93442.59
2023-03-06T19:44:45.290Z,93451.25
2023-03-06T19:47:12.079Z,93452.78
2023-03-06T19:49:39.046Z,93448.06
2023-03-06T19:52:05.785Z,93446.63
2023-03-06T19:54:34.051Z,93449.63
2023-03-06T19:57:00.777Z,93449.16
2023-03-06T19:59:27.633Z,93452.22
2023-03-06T20:01:54.486Z,93462.53
2023-03-06T20:04:21.390Z,93461.53
2023-03-06T20:06:55.821Z,93461.41
2023-03-06T20:09:25.220Z,93457.09
2023-03-06T20:11:52.076Z,93454.06
2023-03-06T20:14:18.853Z,93461.66
2023-03-06T20:16:45.567Z,93462.72
2023-03-06T20:19:12.602Z,93462.78
2023-03-06T20:21:42.046Z,93461.56
2023-03-06T20:24:09.063Z,93460.94
2023-03-06T20:26:51.148Z,93461.94
2023-03-06T20:29:18.438Z,93461.94
2023-03-06T20:31:45.267Z,93464.50
2023-03-06T20:34:12.374Z,93462.31
2023-03-06T20:36:39.914Z,93461.25
2023-03-06T20:39:08.537Z,93461.69
2023-03-06T20:41:35.410Z,93463.38
2023-03-06T20:44:06.234Z,93462.59
2023-03-06T20:46:33.257Z,93464.97
2023-03-06T20:49:00.047Z,93464.44
2023-03-06T20:51:31.400Z,93460.28
2023-03-06T20:53:58.706Z,93456.88
2023-03-06T20:56:27.000Z,93450.47
2023-03-06T20:58:53.762Z,93458.19
2023-03-06T21:01:24.139Z,93460.22
2023-03-06T21:03:51.023Z,93456.75
2023-03-06T21:06:17.784Z,93453.91
2023-03-06T21:08:44.648Z,93462.25
2023-03-06T21:11:12.626Z,93457.91
2023-03-06T21:13:40.768Z,93456.78
2023-03-06T21:16:09.198Z,93458.28
2023-03-06T21:18:36.816Z,93454.66
2023-03-06T21:21:14.609Z,93446.34
2023-03-06T21:23:41.506Z,93451.78
2023-03-06T21:26:14.085Z,93456.03
2023-03-06T21:28:43.120Z,93453.69
2023-03-06T21:31:12.575Z,93453.22
2023-03-06T21:33:39.884Z,93446.50
2023-03-06T21:36:07.317Z,93445.09
2023-03-06T21:38:34.088Z,93451.25
2023-03-06T21:41:18.068Z,93453.09
2023-03-06T21:43:48.429Z,93449.31
2023-03-06T21:46:16.041Z,93442.00
2023-03-06T21:48:44.140Z,93448.47
2023-03-06T21:51:14.493Z,93444.88
2023-03-06T21:53:42.384Z,93439.59
2023-03-06T21:56:10.425Z,93438.69
2023-03-06T21:58:37.184Z,93438.28
2023-03-06T22:01:09.788Z,93436.34
2023-03-06T22:03:36.627Z,93439.34
2023-03-06T22:06:17.790Z,93442.88
2023-03-06T22:08:44.805Z,93430.00
2023-03-06T22:11:15.811Z,93432.50
2023-03-06T22:13:46.549Z,93423.03
2023-03-06T22:16:16.681Z,93430.78
2023-03-06T22:18:50.479Z,93429.00
2023-03-06T22:21:18.209Z,93433.88
2023-03-06T22:23:49.107Z,93424.59
2023-03-06T22:26:15.850Z,93431.00
2023-03-06T22:28:43.984Z,93430.56
2023-03-06T22:31:24.674Z,93432.53
2023-03-06T22:33:52.448Z,93436.84
2023-03-06T22:36:19.254Z,93428.63
2023-03-06T22:38:46.849Z,93429.78
2023-03-06T22:41:16.125Z,93428.13
2023-03-06T22:43:44.021Z,93426.78
2023-03-06T22:46:16.445Z,93433.94
2023-03-06T22:48:43.315Z,93433.53
2023-03-06T22:51:16.123Z,93434.09
2023-03-06T22:53:43.117Z,93433.34
2023-03-06T22:56:11.254Z,93434.66
2023-03-06T22:58:38.333Z,93433.00
2023-03-06T23:01:14.103Z,93433.53
2023-03-06T23:03:42.529Z,93431.13
2023-03-06T23:06:16.671Z,93425.16
2023-03-06T23:08:43.395Z,93419.97
2023-03-06T23:11:14.056Z,93419.97
2023-03-06T23:13:41.546Z,93418.06
2023-03-06T23:16:09.226Z,93415.63
2023-03-06T23:18:37.231Z,93416.59
2023-03-06T23:21:11.671Z,93417.41
2023-03-06T23:23:40.071Z,93411.38
2023-03-06T23:26:07.435Z,93416.78
2023-03-06T23:28:35.377Z,93412.53
2023-03-06T23:31:10.124Z,93407.41
2023-03-06T23:33:37.667Z,93419.09
2023-03-06T23:36:05.235Z,93416.31
2023-03-06T23:38:32.036Z,93418.75
2023-03-06T23:41:10.654Z,93413.94
2023-03-06T23:43:37.913Z,93412.03
2023-03-06T23:46:05.726Z,93409.44
2023-03-06T23:48:43.945Z,93410.75
2023-03-06T23:51:18.409Z,93403.72
2023-03-06T23:53:48.425Z,93413.69
2023-03-06T23:56:15.831Z,93408.50
2023-03-06T23:58:42.586Z,93405.97
